sensor_id;sensor_type;location;lat;lon;timestamp;P1;durP1;ratioP1;P2;durP2;ratioP2
11000;SDS011;5553;48.506;8.870;2022-12-18T00:02:05;40.72;;;17.00;;
11000;SDS011;5553;48.506;8.870;2022-12-18T00:04:33;41.65;;;16.17;;
11000;SDS011;5553;48.506;8.870;2022-12-18T00:07:01;36.67;;;16.95;;
11000;SDS011;5553;48.506;8.870;2022-12-18T00:09:29;45.33;;;17.90;;
11000;SDS011;5553;48.506;8.870;2022-12-18T00:12:00;41.13;;;15.52;;
11000;SDS011;5553;48.506;8.870;2022-12-18T00:14:29;38.75;;;15.45;;
11000;SDS011;5553;48.506;8.870;2022-12-18T00:16:57;43.80;;;15.68;;
11000;SDS011;5553;48.506;8.870;2022-12-18T00:19:26;36.75;;;15.60;;
11000;SDS011;5553;48.506;8.870;2022-12-18T00:21:55;42.10;;;18.33;;
11000;SDS011;5553;48.506;8.870;2022-12-18T00:24:23;36.83;;;15.32;;
11000;SDS011;5553;48.506;8.870;2022-12-18T00:26:51;42.20;;;14.43;;
11000;SDS011;5553;48.506;8.870;2022-12-18T00:29:22;36.80;;;16.40;;
11000;SDS011;5553;48.506;8.870;2022-12-18T00:31:51;32.95;;;13.57;;
11000;SDS011;5553;48.506;8.870;2022-12-18T00:34:19;32.17;;;13.65;;
11000;SDS011;5553;48.506;8.870;2022-12-18T00:36:47;43.13;;;16.58;;
11000;SDS011;5553;48.506;8.870;2022-12-18T00:39:15;45.30;;;15.57;;
11000;SDS011;5553;48.506;8.870;2022-12-18T00:41:44;29.65;;;13.35;;
11000;SDS011;5553;48.506;8.870;2022-12-18T00:44:27;39.05;;;13.70;;
11000;SDS011;5553;48.506;8.870;2022-12-18T00:46:55;41.10;;;14.80;;
11000;SDS011;5553;48.506;8.870;2022-12-18T00:49:24;34.90;;;14.57;;
11000;SDS011;5553;48.506;8.870;2022-12-18T00:51:52;40.35;;;16.15;;
11000;SDS011;5553;48.506;8.870;2022-12-18T00:54:22;38.38;;;16.35;;
11000;SDS011;5553;48.506;8.870;2022-12-18T00:56:51;38.03;;;14.90;;
11000;SDS011;5553;48.506;8.870;2022-12-18T00:59:20;29.38;;;14.63;;
11000;SDS011;5553;48.506;8.870;2022-12-18T01:01:51;37.20;;;14.40;;
11000;SDS011;5553;48.506;8.870;2022-12-18T01:04:19;32.33;;;15.25;;
11000;SDS011;5553;48.506;8.870;2022-12-18T01:06:48;34.75;;;15.45;;
11000;SDS011;5553;48.506;8.870;2022-12-18T01:09:16;44.15;;;16.50;;
11000;SDS011;5553;48.506;8.870;2022-12-18T01:11:44;37.50;;;14.15;;
11000;SDS011;5553;48.506;8.870;2022-12-18T01:14:12;38.60;;;15.15;;
11000;SDS011;5553;48.506;8.870;2022-12-18T01:16:41;32.55;;;14.55;;
11000;SDS011;5553;48.506;8.870;2022-12-18T01:19:12;41.55;;;14.10;;
11000;SDS011;5553;48.506;8.870;2022-12-18T01:21:40;45.08;;;13.57;;
11000;SDS011;5553;48.506;8.870;2022-12-18T01:24:10;36.13;;;14.60;;
11000;SDS011;5553;48.506;8.870;2022-12-18T01:26:39;31.70;;;14.40;;
11000;SDS011;5553;48.506;8.870;2022-12-18T01:29:08;33.55;;;14.20;;
11000;SDS011;5553;48.506;8.870;2022-12-18T01:31:36;34.50;;;14.18;;
11000;SDS011;5553;48.506;8.870;2022-12-18T01:34:04;28.38;;;12.90;;
11000;SDS011;5553;48.506;8.870;2022-12-18T01:36:37;43.88;;;14.73;;
11000;SDS011;5553;48.506;8.870;2022-12-18T01:39:07;30.00;;;13.23;;
11000;SDS011;5553;48.506;8.870;2022-12-18T01:41:38;36.30;;;14.90;;
11000;SDS011;5553;48.506;8.870;2022-12-18T01:47:23;27.73;;;14.07;;
11000;SDS011;5553;48.506;8.870;2022-12-18T01:49:53;43.38;;;13.65;;
11000;SDS011;5553;48.506;8.870;2022-12-18T01:52:25;38.92;;;14.85;;
11000;SDS011;5553;48.506;8.870;2022-12-18T01:54:56;26.48;;;11.68;;
11000;SDS011;5553;48.506;8.870;2022-12-18T01:57:25;33.13;;;13.43;;
11000;SDS011;5553;48.506;8.870;2022-12-18T01:59:55;31.35;;;13.75;;
11000;SDS011;5553;48.506;8.870;2022-12-18T02:02:27;42.10;;;14.23;;
11000;SDS011;5553;48.506;8.870;2022-12-18T02:04:56;25.50;;;12.20;;
11000;SDS011;5553;48.506;8.870;2022-12-18T02:07:29;36.25;;;16.92;;
11000;SDS011;5553;48.506;8.870;2022-12-18T02:10:06;43.20;;;15.43;;
11000;SDS011;5553;48.506;8.870;2022-12-18T02:12:42;37.63;;;15.60;;
11000;SDS011;5553;48.506;8.870;2022-12-18T02:15:15;35.00;;;14.70;;
11000;SDS011;5553;48.506;8.870;2022-12-18T02:17:50;39.85;;;15.63;;
11000;SDS011;5553;48.506;8.870;2022-12-18T02:20:23;45.65;;;17.23;;
11000;SDS011;5553;48.506;8.870;2022-12-18T02:23:04;41.00;;;15.18;;
11000;SDS011;5553;48.506;8.870;2022-12-18T02:25:41;50.70;;;16.35;;
11000;SDS011;5553;48.506;8.870;2022-12-18T02:28:33;48.70;;;16.20;;
11000;SDS011;5553;48.506;8.870;2022-12-18T02:31:06;44.83;;;15.05;;
11000;SDS011;5553;48.506;8.870;2022-12-18T02:33:41;41.78;;;17.00;;
11000;SDS011;5553;48.506;8.870;2022-12-18T02:36:12;45.10;;;15.93;;
11000;SDS011;5553;48.506;8.870;2022-12-18T02:38:43;46.25;;;15.68;;
11000;SDS011;5553;48.506;8.870;2022-12-18T02:41:16;51.67;;;17.73;;
11000;SDS011;5553;48.506;8.870;2022-12-18T02:43:46;44.92;;;16.70;;
11000;SDS011;5553;48.506;8.870;2022-12-18T02:46:28;63.17;;;18.40;;
11000;SDS011;5553;48.506;8.870;2022-12-18T02:49:02;69.38;;;19.25;;
11000;SDS011;5553;48.506;8.870;2022-12-18T02:51:41;53.92;;;18.75;;
11000;SDS011;5553;48.506;8.870;2022-12-18T02:54:20;64.72;;;19.02;;
11000;SDS011;5553;48.506;8.870;2022-12-18T02:57:01;44.58;;;16.95;;
11000;SDS011;5553;48.506;8.870;2022-12-18T02:59:38;56.08;;;17.77;;
11000;SDS011;5553;48.506;8.870;2022-12-18T03:02:11;59.78;;;19.75;;
11000;SDS011;5553;48.506;8.870;2022-12-18T03:04:49;57.88;;;18.60;;
11000;SDS011;5553;48.506;8.870;2022-12-18T03:07:23;46.45;;;17.83;;
11000;SDS011;5553;48.506;8.870;2022-12-18T03:10:00;64.80;;;20.90;;
11000;SDS011;5553;48.506;8.870;2022-12-18T03:12:34;54.53;;;17.88;;
11000;SDS011;5553;48.506;8.870;2022-12-18T03:15:07;50.00;;;18.05;;
11000;SDS011;5553;48.506;8.870;2022-12-18T03:17:38;58.13;;;20.25;;
11000;SDS011;5553;48.506;8.870;2022-12-18T03:20:12;63.92;;;20.17;;
11000;SDS011;5553;48.506;8.870;2022-12-18T03:22:45;67.13;;;20.83;;
11000;SDS011;5553;48.506;8.870;2022-12-18T03:25:19;84.10;;;22.42;;
11000;SDS011;5553;48.506;8.870;2022-12-18T03:27:52;56.78;;;20.42;;
11000;SDS011;5553;48.506;8.870;2022-12-18T03:30:24;62.80;;;22.40;;
11000;SDS011;5553;48.506;8.870;2022-12-18T03:32:56;58.70;;;19.55;;
11000;SDS011;5553;48.506;8.870;2022-12-18T03:35:31;62.80;;;21.55;;
11000;SDS011;5553;48.506;8.870;2022-12-18T03:38:02;62.97;;;20.50;;
11000;SDS011;5553;48.506;8.870;2022-12-18T03:40:33;70.63;;;21.55;;
11000;SDS011;5553;48.506;8.870;2022-12-18T03:43:11;52.25;;;19.10;;
11000;SDS011;5553;48.506;8.870;2022-12-18T03:45:48;54.08;;;22.92;;
11000;SDS011;5553;48.506;8.870;2022-12-18T03:48:25;57.17;;;20.33;;
11000;SDS011;5553;48.506;8.870;2022-12-18T03:50:58;72.50;;;21.88;;
11000;SDS011;5553;48.506;8.870;2022-12-18T03:53:32;67.72;;;22.92;;
11000;SDS011;5553;48.506;8.870;2022-12-18T03:56:05;66.10;;;20.95;;
11000;SDS011;5553;48.506;8.870;2022-12-18T03:58:38;73.18;;;23.13;;
11000;SDS011;5553;48.506;8.870;2022-12-18T04:01:09;85.80;;;23.00;;
11000;SDS011;5553;48.506;8.870;2022-12-18T04:03:42;79.55;;;24.15;;
11000;SDS011;5553;48.506;8.870;2022-12-18T04:06:12;75.78;;;23.77;;
11000;SDS011;5553;48.506;8.870;2022-12-18T04:08:43;85.70;;;23.65;;
11000;SDS011;5553;48.506;8.870;2022-12-18T04:11:12;77.00;;;24.08;;
11000;SDS011;5553;48.506;8.870;2022-12-18T04:13:43;75.43;;;22.88;;
11000;SDS011;5553;48.506;8.870;2022-12-18T04:16:12;64.95;;;22.55;;
11000;SDS011;5553;48.506;8.870;2022-12-18T04:18:40;71.18;;;21.80;;
11000;SDS011;5553;48.506;8.870;2022-12-18T04:21:09;89.93;;;23.10;;
11000;SDS011;5553;48.506;8.870;2022-12-18T07:12:50;27.23;;;9.90;;
11000;SDS011;5553;48.506;8.870;2022-12-18T07:15:18;37.38;;;13.43;;
11000;SDS011;5553;48.506;8.870;2022-12-18T07:17:46;40.47;;;13.15;;
11000;SDS011;5553;48.506;8.870;2022-12-18T07:20:15;44.17;;;15.10;;
11000;SDS011;5553;48.506;8.870;2022-12-18T07:22:43;45.90;;;14.57;;
11000;SDS011;5553;48.506;8.870;2022-12-18T07:25:12;37.17;;;15.25;;
11000;SDS011;5553;48.506;8.870;2022-12-18T07:27:40;43.00;;;14.55;;
11000;SDS011;5553;48.506;8.870;2022-12-18T07:30:12;46.47;;;17.10;;
11000;SDS011;5553;48.506;8.870;2022-12-18T07:32:40;41.67;;;16.27;;
11000;SDS011;5553;48.506;8.870;2022-12-18T07:35:08;58.35;;;17.52;;
11000;SDS011;5553;48.506;8.870;2022-12-18T07:37:37;53.60;;;16.08;;
11000;SDS011;5553;48.506;8.870;2022-12-18T07:40:06;42.08;;;14.45;;
11000;SDS011;5553;48.506;8.870;2022-12-18T07:42:36;39.83;;;14.73;;
11000;SDS011;5553;48.506;8.870;2022-12-18T07:45:05;34.10;;;13.70;;
11000;SDS011;5553;48.506;8.870;2022-12-18T07:47:36;31.50;;;14.25;;
11000;SDS011;5553;48.506;8.870;2022-12-18T07:50:06;39.30;;;14.13;;
11000;SDS011;5553;48.506;8.870;2022-12-18T07:52:35;33.63;;;16.20;;
11000;SDS011;5553;48.506;8.870;2022-12-18T07:55:04;56.15;;;17.05;;
11000;SDS011;5553;48.506;8.870;2022-12-18T07:57:33;50.03;;;17.75;;
11000;SDS011;5553;48.506;8.870;2022-12-18T08:00:01;54.13;;;17.77;;
11000;SDS011;5553;48.506;8.870;2022-12-18T08:02:30;50.15;;;18.48;;
11000;SDS011;5553;48.506;8.870;2022-12-18T08:05:01;50.33;;;16.90;;
11000;SDS011;5553;48.506;8.870;2022-12-18T08:07:29;39.88;;;15.35;;
11000;SDS011;5553;48.506;8.870;2022-12-18T08:09:57;43.53;;;16.60;;
11000;SDS011;5553;48.506;8.870;2022-12-18T08:12:25;40.03;;;14.75;;
11000;SDS011;5553;48.506;8.870;2022-12-18T08:14:54;41.42;;;16.35;;
11000;SDS011;5553;48.506;8.870;2022-12-18T08:17:22;36.20;;;15.63;;
11000;SDS011;5553;48.506;8.870;2022-12-18T08:19:51;40.42;;;16.88;;
11000;SDS011;5553;48.506;8.870;2022-12-18T08:22:21;55.78;;;17.63;;
11000;SDS011;5553;48.506;8.870;2022-12-18T08:24:50;51.50;;;17.23;;
11000;SDS011;5553;48.506;8.870;2022-12-18T08:27:18;43.47;;;16.25;;
11000;SDS011;5553;48.506;8.870;2022-12-18T08:29:46;40.05;;;17.52;;
11000;SDS011;5553;48.506;8.870;2022-12-18T08:32:14;59.47;;;16.92;;
11000;SDS011;5553;48.506;8.870;2022-12-18T08:34:43;52.15;;;17.58;;
11000;SDS011;5553;48.506;8.870;2022-12-18T08:37:11;44.63;;;17.55;;
11000;SDS011;5553;48.506;8.870;2022-12-18T08:39:42;50.35;;;18.35;;
11000;SDS011;5553;48.506;8.870;2022-12-18T08:42:10;43.95;;;16.65;;
11000;SDS011;5553;48.506;8.870;2022-12-18T08:44:51;52.30;;;18.67;;
11000;SDS011;5553;48.506;8.870;2022-12-18T08:47:19;47.17;;;17.08;;
11000;SDS011;5553;48.506;8.870;2022-12-18T08:49:48;53.70;;;17.60;;
11000;SDS011;5553;48.506;8.870;2022-12-18T08:52:16;51.58;;;18.02;;
11000;SDS011;5553;48.506;8.870;2022-12-18T08:54:47;49.15;;;16.83;;
11000;SDS011;5553;48.506;8.870;2022-12-18T08:57:16;47.15;;;19.55;;
11000;SDS011;5553;48.506;8.870;2022-12-18T08:59:44;55.65;;;18.20;;
11000;SDS011;5553;48.506;8.870;2022-12-18T09:02:13;55.03;;;18.35;;
11000;SDS011;5553;48.506;8.870;2022-12-18T09:04:42;50.80;;;18.60;;
11000;SDS011;5553;48.506;8.870;2022-12-18T09:07:10;45.65;;;18.17;;
11000;SDS011;5553;48.506;8.870;2022-12-18T09:09:38;54.38;;;23.15;;
11000;SDS011;5553;48.506;8.870;2022-12-18T09:12:09;98.30;;;34.50;;
11000;SDS011;5553;48.506;8.870;2022-12-18T09:14:37;106.75;;;39.30;;
11000;SDS011;5553;48.506;8.870;2022-12-18T09:17:06;80.30;;;34.20;;
11000;SDS011;5553;48.506;8.870;2022-12-18T09:19:34;74.40;;;23.90;;
11000;SDS011;5553;48.506;8.870;2022-12-18T09:22:02;52.22;;;20.85;;
11000;SDS011;5553;48.506;8.870;2022-12-18T09:24:31;48.55;;;19.95;;
11000;SDS011;5553;48.506;8.870;2022-12-18T09:26:59;52.97;;;20.85;;
11000;SDS011;5553;48.506;8.870;2022-12-18T09:29:31;55.55;;;21.85;;
11000;SDS011;5553;48.506;8.870;2022-12-18T09:32:00;53.65;;;19.45;;
11000;SDS011;5553;48.506;8.870;2022-12-18T09:34:28;60.70;;;23.05;;
11000;SDS011;5553;48.506;8.870;2022-12-18T09:36:56;56.92;;;21.75;;
11000;SDS011;5553;48.506;8.870;2022-12-18T09:39:25;66.90;;;23.30;;
11000;SDS011;5553;48.506;8.870;2022-12-18T09:41:54;63.53;;;25.10;;
11000;SDS011;5553;48.506;8.870;2022-12-18T09:44:25;64.95;;;24.13;;
11000;SDS011;5553;48.506;8.870;2022-12-18T09:47:09;63.95;;;23.25;;
11000;SDS011;5553;48.506;8.870;2022-12-18T09:49:41;58.97;;;22.60;;
11000;SDS011;5553;48.506;8.870;2022-12-18T09:52:12;56.50;;;23.30;;
11000;SDS011;5553;48.506;8.870;2022-12-18T09:54:46;59.65;;;23.98;;
11000;SDS011;5553;48.506;8.870;2022-12-18T09:57:20;63.58;;;25.13;;
11000;SDS011;5553;48.506;8.870;2022-12-18T09:59:52;59.65;;;24.90;;
11000;SDS011;5553;48.506;8.870;2022-12-18T10:02:29;50.20;;;23.48;;
11000;SDS011;5553;48.506;8.870;2022-12-18T10:05:02;63.30;;;26.15;;
11000;SDS011;5553;48.506;8.870;2022-12-18T10:07:39;64.85;;;27.20;;
11000;SDS011;5553;48.506;8.870;2022-12-18T10:10:19;71.80;;;29.88;;
11000;SDS011;5553;48.506;8.870;2022-12-18T10:12:55;65.20;;;28.27;;
11000;SDS011;5553;48.506;8.870;2022-12-18T10:15:30;69.95;;;28.17;;
11000;SDS011;5553;48.506;8.870;2022-12-18T10:18:12;82.35;;;32.92;;
11000;SDS011;5553;48.506;8.870;2022-12-18T10:20:51;82.28;;;35.35;;
11000;SDS011;5553;48.506;8.870;2022-12-18T10:23:23;90.85;;;35.22;;
11000;SDS011;5553;48.506;8.870;2022-12-18T10:25:59;83.70;;;36.85;;
11000;SDS011;5553;48.506;8.870;2022-12-18T10:28:31;101.63;;;41.38;;
11000;SDS011;5553;48.506;8.870;2022-12-18T10:31:01;90.13;;;37.38;;
11000;SDS011;5553;48.506;8.870;2022-12-18T10:33:35;81.80;;;36.92;;
11000;SDS011;5553;48.506;8.870;2022-12-18T10:36:03;71.88;;;33.15;;
11000;SDS011;5553;48.506;8.870;2022-12-18T10:38:32;79.78;;;33.60;;
11000;SDS011;5553;48.506;8.870;2022-12-18T10:41:01;77.35;;;36.85;;
11000;SDS011;5553;48.506;8.870;2022-12-18T10:43:34;65.88;;;33.55;;
11000;SDS011;5553;48.506;8.870;2022-12-18T10:46:12;65.50;;;32.58;;
11000;SDS011;5553;48.506;8.870;2022-12-18T10:48:56;69.68;;;31.13;;
11000;SDS011;5553;48.506;8.870;2022-12-18T10:51:26;73.57;;;30.35;;
11000;SDS011;5553;48.506;8.870;2022-12-18T10:53:59;69.78;;;31.05;;
11000;SDS011;5553;48.506;8.870;2022-12-18T10:56:30;77.07;;;35.13;;
11000;SDS011;5553;48.506;8.870;2022-12-18T10:59:02;75.03;;;29.45;;
11000;SDS011;5553;48.506;8.870;2022-12-18T11:01:45;55.90;;;29.17;;
11000;SDS011;5553;48.506;8.870;2022-12-18T11:04:22;59.65;;;26.83;;
11000;SDS011;5553;48.506;8.870;2022-12-18T11:06:53;53.90;;;27.35;;
11000;SDS011;5553;48.506;8.870;2022-12-18T11:09:23;59.83;;;27.77;;
11000;SDS011;5553;48.506;8.870;2022-12-18T11:11:54;50.93;;;25.83;;
11000;SDS011;5553;48.506;8.870;2022-12-18T11:14:25;49.00;;;25.73;;
11000;SDS011;5553;48.506;8.870;2022-12-18T11:16:55;62.27;;;27.20;;
11000;SDS011;5553;48.506;8.870;2022-12-18T11:19:33;51.90;;;26.97;;
11000;SDS011;5553;48.506;8.870;2022-12-18T11:22:03;53.43;;;26.70;;
11000;SDS011;5553;48.506;8.870;2022-12-18T11:24:52;55.90;;;26.43;;
11000;SDS011;5553;48.506;8.870;2022-12-18T11:27:23;61.93;;;29.57;;
11000;SDS011;5553;48.506;8.870;2022-12-18T11:29:52;51.77;;;27.37;;
11000;SDS011;5553;48.506;8.870;2022-12-18T11:32:31;59.40;;;28.77;;
11000;SDS011;5553;48.506;8.870;2022-12-18T11:35:09;61.87;;;29.70;;
11000;SDS011;5553;48.506;8.870;2022-12-18T11:37:43;66.33;;;31.93;;
11000;SDS011;5553;48.506;8.870;2022-12-18T11:40:17;65.90;;;31.77;;
11000;SDS011;5553;48.506;8.870;2022-12-18T11:42:50;65.83;;;31.40;;
11000;SDS011;5553;48.506;8.870;2022-12-18T11:45:29;76.63;;;31.37;;
11000;SDS011;5553;48.506;8.870;2022-12-18T11:48:03;62.13;;;31.17;;
11000;SDS011;5553;48.506;8.870;2022-12-18T11:50:45;58.47;;;30.73;;
11000;SDS011;5553;48.506;8.870;2022-12-18T11:53:17;62.30;;;29.90;;
11000;SDS011;5553;48.506;8.870;2022-12-18T11:55:49;74.37;;;32.50;;
11000;SDS011;5553;48.506;8.870;2022-12-18T11:58:27;59.43;;;29.93;;
11000;SDS011;5553;48.506;8.870;2022-12-18T12:01:07;70.03;;;32.63;;
11000;SDS011;5553;48.506;8.870;2022-12-18T12:03:47;61.00;;;30.30;;
11000;SDS011;5553;48.506;8.870;2022-12-18T12:06:32;62.83;;;30.27;;
11000;SDS011;5553;48.506;8.870;2022-12-18T12:09:07;64.33;;;29.77;;
11000;SDS011;5553;48.506;8.870;2022-12-18T12:11:46;58.83;;;28.10;;
11000;SDS011;5553;48.506;8.870;2022-12-18T12:14:28;45.87;;;25.17;;
11000;SDS011;5553;48.506;8.870;2022-12-18T12:17:10;56.07;;;26.97;;
11000;SDS011;5553;48.506;8.870;2022-12-18T12:19:48;54.10;;;24.93;;
11000;SDS011;5553;48.506;8.870;2022-12-18T12:22:28;49.47;;;26.30;;
11000;SDS011;5553;48.506;8.870;2022-12-18T12:25:07;45.93;;;22.20;;
11000;SDS011;5553;48.506;8.870;2022-12-18T12:27:49;50.93;;;24.43;;
11000;SDS011;5553;48.506;8.870;2022-12-18T12:30:30;55.73;;;26.13;;
11000;SDS011;5553;48.506;8.870;2022-12-18T12:33:12;55.60;;;25.57;;
11000;SDS011;5553;48.506;8.870;2022-12-18T12:35:52;46.20;;;23.73;;
11000;SDS011;5553;48.506;8.870;2022-12-18T12:38:29;45.40;;;22.73;;
11000;SDS011;5553;48.506;8.870;2022-12-18T12:41:03;45.67;;;23.37;;
11000;SDS011;5553;48.506;8.870;2022-12-18T12:43:54;58.20;;;24.07;;
11000;SDS011;5553;48.506;8.870;2022-12-18T12:46:22;51.07;;;25.83;;
11000;SDS011;5553;48.506;8.870;2022-12-18T12:48:53;49.63;;;24.87;;
11000;SDS011;5553;48.506;8.870;2022-12-18T12:51:25;52.50;;;25.57;;
11000;SDS011;5553;48.506;8.870;2022-12-18T12:53:58;52.83;;;24.53;;
11000;SDS011;5553;48.506;8.870;2022-12-18T12:56:30;46.30;;;25.10;;
11000;SDS011;5553;48.506;8.870;2022-12-18T12:59:10;48.67;;;25.07;;
11000;SDS011;5553;48.506;8.870;2022-12-18T13:01:49;51.63;;;26.10;;
11000;SDS011;5553;48.506;8.870;2022-12-18T13:04:23;53.00;;;26.07;;
11000;SDS011;5553;48.506;8.870;2022-12-18T13:07:02;47.53;;;24.00;;
11000;SDS011;5553;48.506;8.870;2022-12-18T13:10:10;44.57;;;23.60;;
11000;SDS011;5553;48.506;8.870;2022-12-18T13:12:56;50.47;;;25.87;;
11000;SDS011;5553;48.506;8.870;2022-12-18T13:15:24;50.40;;;25.07;;
11000;SDS011;5553;48.506;8.870;2022-12-18T13:18:05;44.80;;;23.40;;
11000;SDS011;5553;48.506;8.870;2022-12-18T13:20:42;50.97;;;23.10;;
11000;SDS011;5553;48.506;8.870;2022-12-18T13:25:59;50.00;;;24.60;;
11000;SDS011;5553;48.506;8.870;2022-12-18T13:28:54;55.80;;;26.53;;
11000;SDS011;5553;48.506;8.870;2022-12-18T13:34:30;49.07;;;23.53;;
11000;SDS011;5553;48.506;8.870;2022-12-18T13:39:56;57.67;;;24.10;;
11000;SDS011;5553;48.506;8.870;2022-12-18T13:42:34;44.83;;;22.83;;
11000;SDS011;5553;48.506;8.870;2022-12-18T13:48:20;44.87;;;21.47;;
11000;SDS011;5553;48.506;8.870;2022-12-18T13:50:52;45.00;;;21.50;;
11000;SDS011;5553;48.506;8.870;2022-12-18T13:53:36;45.93;;;23.33;;
11000;SDS011;5553;48.506;8.870;2022-12-18T13:56:14;45.60;;;22.90;;
11000;SDS011;5553;48.506;8.870;2022-12-18T13:58:44;43.13;;;21.73;;
11000;SDS011;5553;48.506;8.870;2022-12-18T14:01:21;44.50;;;23.27;;
11000;SDS011;5553;48.506;8.870;2022-12-18T14:03:52;45.07;;;22.10;;
11000;SDS011;5553;48.506;8.870;2022-12-18T14:06:36;46.33;;;22.60;;
11000;SDS011;5553;48.506;8.870;2022-12-18T14:09:05;49.40;;;23.97;;
11000;SDS011;5553;48.506;8.870;2022-12-18T14:11:38;44.60;;;22.40;;
11000;SDS011;5553;48.506;8.870;2022-12-18T14:14:06;39.47;;;21.77;;
11000;SDS011;5553;48.506;8.870;2022-12-18T14:16:35;43.73;;;22.87;;
11000;SDS011;5553;48.506;8.870;2022-12-18T14:19:08;54.38;;;23.90;;
11000;SDS011;5553;48.506;8.870;2022-12-18T14:21:45;47.87;;;22.73;;
11000;SDS011;5553;48.506;8.870;2022-12-18T14:24:15;46.60;;;24.00;;
11000;SDS011;5553;48.506;8.870;2022-12-18T14:26:45;51.38;;;24.42;;
11000;SDS011;5553;48.506;8.870;2022-12-18T14:29:18;54.28;;;25.48;;
11000;SDS011;5553;48.506;8.870;2022-12-18T14:34:38;47.70;;;24.40;;
11000;SDS011;5553;48.506;8.870;2022-12-18T14:37:08;44.35;;;23.50;;
11000;SDS011;5553;48.506;8.870;2022-12-18T14:39:38;55.22;;;27.80;;
11000;SDS011;5553;48.506;8.870;2022-12-18T14:42:09;49.33;;;24.70;;
11000;SDS011;5553;48.506;8.870;2022-12-18T14:44:39;64.97;;;31.13;;
11000;SDS011;5553;48.506;8.870;2022-12-18T14:47:12;99.07;;;39.28;;
11000;SDS011;5553;48.506;8.870;2022-12-18T14:49:44;78.05;;;31.92;;
11000;SDS011;5553;48.506;8.870;2022-12-18T14:52:18;58.92;;;28.42;;
11000;SDS011;5553;48.506;8.870;2022-12-18T14:54:51;57.47;;;27.33;;
11000;SDS011;5553;48.506;8.870;2022-12-18T14:57:21;51.90;;;26.83;;
11000;SDS011;5553;48.506;8.870;2022-12-18T14:59:51;54.83;;;28.05;;
11000;SDS011;5553;48.506;8.870;2022-12-18T15:02:21;50.33;;;24.55;;
11000;SDS011;5553;48.506;8.870;2022-12-18T15:05:02;50.58;;;25.42;;
11000;SDS011;5553;48.506;8.870;2022-12-18T15:07:39;52.70;;;25.50;;
11000;SDS011;5553;48.506;8.870;2022-12-18T15:10:10;50.22;;;25.27;;
11000;SDS011;5553;48.506;8.870;2022-12-18T15:12:42;53.85;;;24.23;;
11000;SDS011;5553;48.506;8.870;2022-12-18T15:18:11;56.53;;;22.65;;
11000;SDS011;5553;48.506;8.870;2022-12-18T15:20:45;50.70;;;23.73;;
11000;SDS011;5553;48.506;8.870;2022-12-18T15:23:19;49.13;;;23.58;;
11000;SDS011;5553;48.506;8.870;2022-12-18T15:25:54;50.75;;;23.85;;
11000;SDS011;5553;48.506;8.870;2022-12-18T15:28:25;50.25;;;24.42;;
11000;SDS011;5553;48.506;8.870;2022-12-18T15:31:17;51.72;;;22.42;;
11000;SDS011;5553;48.506;8.870;2022-12-18T15:34:01;47.15;;;23.25;;
11000;SDS011;5553;48.506;8.870;2022-12-18T15:36:41;68.05;;;26.00;;
11000;SDS011;5553;48.506;8.870;2022-12-18T15:39:10;45.50;;;23.38;;
11000;SDS011;5553;48.506;8.870;2022-12-18T15:41:40;52.80;;;22.70;;
11000;SDS011;5553;48.506;8.870;2022-12-18T15:44:29;55.28;;;23.67;;
11000;SDS011;5553;48.506;8.870;2022-12-18T15:46:54;42.47;;;22.27;;
11000;SDS011;5553;48.506;8.870;2022-12-18T15:49:23;48.17;;;21.75;;
11000;SDS011;5553;48.506;8.870;2022-12-18T15:51:54;50.60;;;22.73;;
11000;SDS011;5553;48.506;8.870;2022-12-18T15:54:25;44.67;;;21.52;;
11000;SDS011;5553;48.506;8.870;2022-12-18T15:57:08;62.85;;;22.55;;
11000;SDS011;5553;48.506;8.870;2022-12-18T15:59:52;48.60;;;22.73;;
11000;SDS011;5553;48.506;8.870;2022-12-18T16:02:23;42.13;;;21.50;;
11000;SDS011;5553;48.506;8.870;2022-12-18T16:04:52;48.45;;;21.00;;
11000;SDS011;5553;48.506;8.870;2022-12-18T16:07:23;44.40;;;21.00;;
11000;SDS011;5553;48.506;8.870;2022-12-18T16:09:52;58.05;;;21.88;;
11000;SDS011;5553;48.506;8.870;2022-12-18T16:12:21;40.15;;;19.50;;
11000;SDS011;5553;48.506;8.870;2022-12-18T16:14:51;42.67;;;20.90;;
11000;SDS011;5553;48.506;8.870;2022-12-18T16:17:20;43.75;;;19.50;;
11000;SDS011;5553;48.506;8.870;2022-12-18T16:19:48;46.95;;;21.00;;
11000;SDS011;5553;48.506;8.870;2022-12-18T16:22:20;48.53;;;21.00;;
11000;SDS011;5553;48.506;8.870;2022-12-18T16:24:52;43.67;;;21.60;;
11000;SDS011;5553;48.506;8.870;2022-12-18T16:27:22;44.30;;;21.17;;
11000;SDS011;5553;48.506;8.870;2022-12-18T16:29:51;49.65;;;21.13;;
11000;SDS011;5553;48.506;8.870;2022-12-18T16:32:21;52.60;;;20.63;;
11000;SDS011;5553;48.506;8.870;2022-12-18T16:34:50;50.58;;;20.10;;
11000;SDS011;5553;48.506;8.870;2022-12-18T16:37:18;45.17;;;20.17;;
11000;SDS011;5553;48.506;8.870;2022-12-18T16:39:46;54.38;;;20.92;;
11000;SDS011;5553;48.506;8.870;2022-12-18T16:42:18;48.20;;;21.23;;
11000;SDS011;5553;48.506;8.870;2022-12-18T16:44:47;43.30;;;20.73;;
11000;SDS011;5553;48.506;8.870;2022-12-18T16:47:17;44.47;;;21.70;;
11000;SDS011;5553;48.506;8.870;2022-12-18T16:49:46;39.45;;;19.10;;
11000;SDS011;5553;48.506;8.870;2022-12-18T16:52:15;41.05;;;20.55;;
11000;SDS011;5553;48.506;8.870;2022-12-18T16:54:44;51.17;;;21.35;;
11000;SDS011;5553;48.506;8.870;2022-12-18T16:57:13;41.83;;;20.20;;
11000;SDS011;5553;48.506;8.870;2022-12-18T16:59:45;43.00;;;19.40;;
11000;SDS011;5553;48.506;8.870;2022-12-18T17:02:14;43.38;;;20.23;;
11000;SDS011;5553;48.506;8.870;2022-12-18T17:04:44;39.17;;;19.05;;
11000;SDS011;5553;48.506;8.870;2022-12-18T17:07:13;50.60;;;21.40;;
11000;SDS011;5553;48.506;8.870;2022-12-18T17:09:42;51.45;;;20.40;;
11000;SDS011;5553;48.506;8.870;2022-12-18T17:12:11;46.22;;;20.52;;
11000;SDS011;5553;48.506;8.870;2022-12-18T17:14:39;51.60;;;21.33;;
11000;SDS011;5553;48.506;8.870;2022-12-18T17:17:10;44.05;;;18.88;;
11000;SDS011;5553;48.506;8.870;2022-12-18T17:19:38;40.45;;;18.65;;
11000;SDS011;5553;48.506;8.870;2022-12-18T17:22:07;49.70;;;19.60;;
11000;SDS011;5553;48.506;8.870;2022-12-18T17:24:35;50.40;;;21.48;;
11000;SDS011;5553;48.506;8.870;2022-12-18T17:27:03;56.90;;;21.98;;
11000;SDS011;5553;48.506;8.870;2022-12-18T17:29:33;44.60;;;21.73;;
11000;SDS011;5553;48.506;8.870;2022-12-18T17:32:01;43.70;;;20.67;;
11000;SDS011;5553;48.506;8.870;2022-12-18T17:34:33;49.33;;;20.27;;
11000;SDS011;5553;48.506;8.870;2022-12-18T17:37:01;45.55;;;20.20;;
11000;SDS011;5553;48.506;8.870;2022-12-18T17:39:30;49.33;;;21.52;;
11000;SDS011;5553;48.506;8.870;2022-12-18T17:41:58;48.47;;;21.17;;
11000;SDS011;5553;48.506;8.870;2022-12-18T17:44:26;54.92;;;21.35;;
11000;SDS011;5553;48.506;8.870;2022-12-18T17:46:55;45.70;;;18.10;;
11000;SDS011;5553;48.506;8.870;2022-12-18T17:49:23;50.42;;;20.88;;
11000;SDS011;5553;48.506;8.870;2022-12-18T17:51:54;50.88;;;22.73;;
11000;SDS011;5553;48.506;8.870;2022-12-18T17:54:22;42.20;;;19.67;;
11000;SDS011;5553;48.506;8.870;2022-12-18T17:56:50;52.58;;;21.83;;
11000;SDS011;5553;48.506;8.870;2022-12-18T17:59:19;48.00;;;22.52;;
11000;SDS011;5553;48.506;8.870;2022-12-18T18:01:47;54.72;;;23.00;;
11000;SDS011;5553;48.506;8.870;2022-12-18T18:04:15;53.70;;;21.85;;
11000;SDS011;5553;48.506;8.870;2022-12-18T18:06:44;52.42;;;24.17;;
11000;SDS011;5553;48.506;8.870;2022-12-18T18:09:15;63.60;;;23.77;;
11000;SDS011;5553;48.506;8.870;2022-12-18T18:11:43;61.88;;;24.80;;
11000;SDS011;5553;48.506;8.870;2022-12-18T18:14:24;49.47;;;24.02;;